Time;durP1;ratioP1;P1;durP2;ratioP2;P2;SDS_P1;SDS_P2;PMS_P1;PMS_P2;Temp;Humidity;BMP_temperature;BMP_pressure;BME280_temperature;BME280_humidity;BME280_pressure;Samples;Min_cycle;Max_cycle;Signal;HPM_P1;HPM_P2
2022/05/28 00:03:08;;;;;;;1.02;0.70;;;18.60;99.90;;;;;;1933209;73;21119;-83
2022/05/28 00:06:00;;;;;;;1.05;0.60;;;18.60;99.90;;;;;;1888034;75;21059;-83
2022/05/28 00:08:52;;;;;;;1.05;0.60;;;18.60;99.90;;;;;;1892822;75;21129;-83
2022/05/28 00:11:45;;;;;;;1.80;0.70;;;18.50;99.90;;;;;;1894651;75;21216;-83
2022/05/28 00:14:36;;;;;;;2.85;0.80;;;18.40;99.90;;;;;;1898586;75;21094;-83
2022/05/28 00:17:28;;;;;;;2.37;0.90;;;18.40;99.90;;;;;;1884731;75;21110;-83
2022/05/28 00:20:19;;;;;;;1.40;0.55;;;18.30;99.90;;;;;;1895905;75;21547;-83
2022/05/28 00:23:13;;;;;;;1.57;0.80;;;18.30;99.90;;;;;;1892740;75;21125;-83
2022/05/28 00:26:04;;;;;;;1.10;0.70;;;18.10;99.90;;;;;;1900763;75;21191;-83
2022/05/28 00:28:55;;;;;;;1.75;0.80;;;18.10;99.90;;;;;;1912793;75;21059;-83
2022/05/28 00:31:47;;;;;;;1.30;0.72;;;18.00;99.90;;;;;;1892644;73;21058;-83
2022/05/28 00:34:40;;;;;;;1.00;0.70;;;17.90;99.90;;;;;;1898798;73;21135;-83
2022/05/28 00:37:31;;;;;;;1.80;0.70;;;17.80;99.90;;;;;;1896239;75;21078;-84
2022/05/28 00:40:25;;;;;;;1.87;0.78;;;17.70;99.90;;;;;;1884846;75;21569;-84
2022/05/28 00:46:01;;;;;;;2.55;0.80;;;17.60;99.90;;;;;;1927779;72;22181;-83
2022/05/28 00:49:13;;;;;;;1.70;0.90;;;17.60;99.90;;;;;;1876189;75;21121;-83
2022/05/28 00:52:26;;;;;;;2.92;0.70;;;17.50;99.90;;;;;;1887917;75;22267;-84
2022/05/28 00:55:19;;;;;;;2.77;0.60;;;17.40;99.90;;;;;;1884653;75;21173;-83
2022/05/28 00:58:30;;;;;;;2.65;1.00;;;17.40;99.90;;;;;;1886421;75;21055;-83
2022/05/28 01:01:24;;;;;;;3.55;1.00;;;17.30;99.90;;;;;;1873762;75;21095;-84
2022/05/28 01:04:21;;;;;;;1.87;0.70;;;17.30;99.90;;;;;;1916473;73;21055;-83
2022/05/28 01:07:18;;;;;;;1.87;0.82;;;17.30;99.90;;;;;;1880034;73;21518;-83
2022/05/28 01:10:14;;;;;;;2.08;0.80;;;17.20;99.90;;;;;;1880844;75;21109;-84
2022/05/28 01:13:08;;;;;;;2.12;0.60;;;17.20;99.90;;;;;;1892032;75;21122;-83
2022/05/28 01:16:03;;;;;;;3.58;0.75;;;17.30;99.90;;;;;;1873102;75;21098;-83
2022/05/28 01:18:57;;;;;;;0.95;0.70;;;17.30;99.90;;;;;;1880516;75;21059;-83
2022/05/28 01:24:30;;;;;;;1.72;0.80;;;17.50;99.90;;;;;;1934604;72;22224;-82
2022/05/28 01:27:42;;;;;;;2.17;0.82;;;17.30;99.90;;;;;;1894369;75;21134;-83
2022/05/28 01:30:53;;;;;;;1.32;0.70;;;17.20;99.90;;;;;;1890647;75;21134;-82
2022/05/28 01:33:45;;;;;;;1.45;0.70;;;17.10;99.90;;;;;;1928748;73;21109;-82
2022/05/28 01:36:57;;;;;;;2.15;0.78;;;17.10;99.90;;;;;;1887725;73;21102;-82
2022/05/28 01:39:50;;;;;;;1.35;0.70;;;16.90;99.90;;;;;;1880324;76;21553;-82
2022/05/28 01:42:44;;;;;;;1.70;0.70;;;17.00;99.90;;;;;;1901158;75;21099;-83
2022/05/28 01:45:39;;;;;;;1.10;0.70;;;16.90;99.90;;;;;;1903658;75;21094;-83
2022/05/28 01:48:31;;;;;;;2.30;0.90;;;16.80;99.90;;;;;;1898010;75;21099;-84
2022/05/28 01:51:24;;;;;;;1.55;0.82;;;16.90;99.90;;;;;;1898191;75;21071;-82
2022/05/28 01:54:18;;;;;;;2.00;0.90;;;16.90;99.90;;;;;;1906688;75;21042;-83
2022/05/28 01:57:11;;;;;;;1.85;0.90;;;16.80;99.90;;;;;;1907802;75;21674;-83
2022/05/28 02:00:02;;;;;;;1.85;0.70;;;16.70;99.90;;;;;;1912295;73;21167;-83
2022/05/28 02:02:54;;;;;;;2.37;0.82;;;16.70;99.90;;;;;;1896516;73;21054;-83
2022/05/28 02:05:45;;;;;;;2.47;0.80;;;16.70;99.90;;;;;;1900878;75;21107;-83
2022/05/28 02:08:40;;;;;;;2.30;0.80;;;16.70;99.90;;;;;;1906439;75;21046;-83
2022/05/28 02:17:03;;;;;;;1.15;0.80;;;16.50;99.90;;;;;;1946025;72;22184;-83
2022/05/28 02:20:16;;;;;;;1.67;0.70;;;16.50;99.90;;;;;;1953366;72;21486;-83
2022/05/28 02:23:30;;;;;;;1.12;0.80;;;16.50;99.90;;;;;;1954462;72;21103;-83
2022/05/28 02:29:06;;;;;;;2.02;0.80;;;16.40;99.90;;;;;;1941044;72;22313;-82
2022/05/28 02:32:19;;;;;;;2.52;0.90;;;16.40;99.90;;;;;;1897822;74;21443;-82
2022/05/28 02:35:29;;;;;;;2.72;0.85;;;16.40;99.90;;;;;;1908416;73;21092;-82
2022/05/28 02:38:21;;;;;;;1.77;0.75;;;16.40;99.90;;;;;;1902673;75;21159;-83
2022/05/28 02:41:31;;;;;;;2.50;0.90;;;16.50;99.90;;;;;;1893508;75;21105;-83
2022/05/28 02:44:23;;;;;;;2.00;0.80;;;16.60;99.90;;;;;;1892939;73;21535;-83
2022/05/28 02:47:14;;;;;;;1.85;0.78;;;16.60;99.90;;;;;;1897431;73;21093;-83
2022/05/28 02:50:08;;;;;;;1.42;0.85;;;16.60;99.90;;;;;;1897770;75;21135;-83
2022/05/28 02:53:01;;;;;;;1.60;1.00;;;16.60;99.90;;;;;;1879822;75;21106;-83
2022/05/28 02:55:52;;;;;;;2.47;0.90;;;16.60;99.90;;;;;;1910243;75;21067;-83
2022/05/28 02:58:44;;;;;;;2.27;1.07;;;16.70;99.90;;;;;;1912803;75;21621;-83
2022/05/28 03:04:15;;;;;;;2.75;0.85;;;16.70;99.90;;;;;;1961849;72;22276;-83
2022/05/28 03:07:25;;;;;;;1.37;0.80;;;16.60;99.90;;;;;;1887102;73;21083;-83
2022/05/28 03:10:35;;;;;;;3.40;0.85;;;16.60;99.90;;;;;;1896393;75;21039;-83
2022/05/28 03:13:26;;;;;;;1.02;0.80;;;16.60;99.90;;;;;;1915031;75;21039;-83
2022/05/28 03:19:21;;;;;;;2.00;1.07;;;16.60;99.90;;;;;;1926135;72;28126;-82
2022/05/28 03:22:31;;;;;;;1.70;0.80;;;16.50;99.90;;;;;;1890209;75;21139;-82
2022/05/28 03:25:41;;;;;;;0.80;0.70;;;16.50;99.90;;;;;;1873169;75;21101;-82
2022/05/28 03:28:32;;;;;;;1.02;0.90;;;16.40;99.90;;;;;;1876449;75;21121;-83
2022/05/28 03:31:42;;;;;;;1.60;0.90;;;16.50;99.90;;;;;;1916974;73;21185;-76
2022/05/28 03:34:33;;;;;;;1.72;0.98;;;16.50;99.90;;;;;;1885046;73;21103;-76
2022/05/28 03:37:25;;;;;;;2.05;1.15;;;16.50;99.90;;;;;;1892869;75;21103;-78
2022/05/28 03:40:17;;;;;;;1.57;0.90;;;16.60;99.90;;;;;;1897960;75;21107;-76
2022/05/28 03:43:09;;;;;;;3.52;0.90;;;16.60;99.90;;;;;;1875750;75;21572;-77
2022/05/28 03:46:01;;;;;;;2.05;0.95;;;16.60;99.90;;;;;;1883641;75;21166;-76
2022/05/28 03:48:55;;;;;;;1.22;0.90;;;16.50;99.90;;;;;;1874863;75;21170;-77
2022/05/28 03:51:46;;;;;;;2.45;1.15;;;16.40;99.90;;;;;;1883300;75;21058;-77
2022/05/28 03:54:43;;;;;;;1.87;1.05;;;16.50;99.90;;;;;;1872523;75;21034;-77
2022/05/28 03:57:33;;;;;;;1.42;1.00;;;16.50;99.90;;;;;;1875669;75;21181;-77
2022/05/28 04:00:25;;;;;;;1.60;1.15;;;16.50;99.90;;;;;;1874608;73;21149;-77
2022/05/28 04:03:16;;;;;;;2.30;1.12;;;16.40;99.90;;;;;;1892827;73;21187;-77
2022/05/28 04:06:09;;;;;;;1.72;1.30;;;16.50;99.90;;;;;;1893515;75;21515;-77
2022/05/28 04:09:01;;;;;;;4.00;1.70;;;16.40;99.90;;;;;;1904497;73;21103;-80
2022/05/28 04:11:54;;;;;;;3.80;1.12;;;16.40;99.90;;;;;;1892949;75;21110;-78
2022/05/28 04:14:46;;;;;;;1.77;1.17;;;16.40;99.90;;;;;;1894356;75;21111;-79
2022/05/28 04:17:37;;;;;;;1.62;0.90;;;16.30;99.90;;;;;;1890072;75;21607;-80
2022/05/28 04:20:29;;;;;;;2.33;1.12;;;16.50;99.90;;;;;;1884841;75;21562;-80
2022/05/28 04:23:20;;;;;;;2.27;1.10;;;16.40;99.90;;;;;;1901792;73;21043;-80
2022/05/28 04:26:12;;;;;;;2.95;1.40;;;16.40;99.90;;;;;;1883459;75;21170;-80
2022/05/28 04:29:03;;;;;;;1.37;1.20;;;16.30;99.90;;;;;;1886992;75;21059;-80
2022/05/28 04:31:55;;;;;;;2.98;1.37;;;16.30;99.90;;;;;;1883005;74;21148;-78
2022/05/28 04:34:47;;;;;;;2.08;1.52;;;16.30;99.90;;;;;;1891112;74;21125;-78
2022/05/28 04:37:39;;;;;;;2.12;1.20;;;16.30;99.90;;;;;;1893468;75;21638;-78
2022/05/28 04:40:31;;;;;;;2.67;1.40;;;16.30;99.90;;;;;;1891488;75;21496;-78
2022/05/28 04:43:22;;;;;;;1.72;1.05;;;16.20;99.90;;;;;;1886335;75;21121;-80
2022/05/28 04:46:14;;;;;;;1.15;1.00;;;16.30;99.90;;;;;;1895407;75;21059;-80
2022/05/28 04:49:06;;;;;;;1.57;1.05;;;16.40;99.90;;;;;;1882995;75;21189;-80
2022/05/28 04:51:59;;;;;;;2.33;1.17;;;16.30;99.90;;;;;;1886573;74;21174;-80
2022/05/28 04:54:51;;;;;;;1.42;1.20;;;16.20;99.90;;;;;;1868327;75;21605;-79
2022/05/28 04:57:48;;;;;;;1.77;1.40;;;16.20;99.90;;;;;;1883393;75;21499;-79
2022/05/28 05:00:41;;;;;;;1.93;1.40;;;16.10;99.90;;;;;;1882266;74;21174;-79
2022/05/28 05:03:34;;;;;;;3.17;1.60;;;16.00;99.90;;;;;;1927805;74;21235;-79
2022/05/28 05:06:25;;;;;;;2.27;1.42;;;15.90;99.90;;;;;;1872082;77;21204;-78
2022/05/28 05:09:17;;;;;;;2.70;1.25;;;15.80;99.90;;;;;;1886219;75;21133;-78
2022/05/28 05:12:10;;;;;;;1.30;1.20;;;15.90;99.90;;;;;;1882924;75;21129;-78
2022/05/28 05:15:02;;;;;;;2.10;1.10;;;16.00;99.90;;;;;;1879291;75;21131;-79
2022/05/28 05:17:54;;;;;;;2.17;1.20;;;16.00;99.90;;;;;;1880661;75;21046;-79
2022/05/28 05:21:20;;;;;;;3.12;1.10;;;15.90;99.90;;;;;;1887564;75;21192;-78
2022/05/28 05:24:12;;;;;;;2.37;1.30;;;15.90;99.90;;;;;;1898214;74;21176;-80
2022/05/28 05:27:07;;;;;;;2.55;1.60;;;15.90;99.90;;;;;;1885248;75;21187;-80
2022/05/28 05:30:15;;;;;;;1.50;1.20;;;15.80;99.90;;;;;;1883835;75;21044;-80
2022/05/28 05:33:07;;;;;;;2.52;1.40;;;15.80;99.90;;;;;;1885334;74;21215;-80
2022/05/28 05:36:00;;;;;;;5.40;1.85;;;15.80;99.90;;;;;;1877305;75;21130;-78
2022/05/28 05:38:54;;;;;;;3.12;1.70;;;15.80;99.90;;;;;;1875367;76;21831;-78
2022/05/28 05:41:47;;;;;;;2.50;1.72;;;15.80;99.90;;;;;;1868414;75;21086;-78
2022/05/28 05:44:41;;;;;;;2.87;1.65;;;15.70;99.90;;;;;;1893999;75;21156;-79
2022/05/28 05:47:32;;;;;;;3.55;1.90;;;15.80;99.90;;;;;;1876435;75;21216;-80
2022/05/28 05:50:24;;;;;;;3.27;1.92;;;15.80;99.90;;;;;;1883557;75;21585;-81
2022/05/28 05:53:16;;;;;;;2.92;1.77;;;15.80;99.90;;;;;;1881467;75;21161;-81
2022/05/28 05:56:08;;;;;;;2.10;1.80;;;15.80;99.90;;;;;;1884278;74;21496;-81
2022/05/28 05:59:00;;;;;;;3.45;2.47;;;15.80;99.90;;;;;;1898768;75;21189;-81
2022/05/28 06:01:52;;;;;;;2.50;2.30;;;15.90;99.90;;;;;;1893521;74;21786;-80
2022/05/28 06:04:44;;;;;;;2.72;2.52;;;15.90;99.90;;;;;;1908300;74;21047;-81
2022/05/28 06:07:36;;;;;;;2.98;2.50;;;15.90;99.90;;;;;;1883943;75;21091;-81
2022/05/28 06:10:29;;;;;;;2.98;2.37;;;15.90;99.90;;;;;;1896896;74;21122;-82
2022/05/28 06:13:20;;;;;;;2.85;2.55;;;16.10;99.90;;;;;;1898535;75;21078;-82
2022/05/28 06:16:12;;;;;;;3.67;2.30;;;16.20;99.90;;;;;;1872440;77;21523;-82
2022/05/28 06:19:08;;;;;;;2.37;2.17;;;16.20;99.90;;;;;;1886864;75;21048;-81
2022/05/28 06:22:01;;;;;;;3.67;2.60;;;16.40;99.90;;;;;;1874138;75;21131;-81
2022/05/28 06:24:52;;;;;;;3.52;2.75;;;16.40;99.90;;;;;;1894055;75;21625;-82
2022/05/28 06:27:46;;;;;;;3.52;2.77;;;16.50;99.90;;;;;;1895014;75;21040;-81
2022/05/28 06:30:37;;;;;;;3.33;2.35;;;16.50;99.90;;;;;;1872935;76;21160;-81
2022/05/28 06:33:29;;;;;;;3.15;2.85;;;16.50;99.90;;;;;;1890373;74;21079;-81
2022/05/28 06:36:20;;;;;;;3.12;2.52;;;16.40;99.90;;;;;;1884614;75;21180;-81
2022/05/28 06:39:11;;;;;;;4.50;3.08;;;16.50;99.90;;;;;;1881579;75;21594;-80
2022/05/28 06:42:03;;;;;;;3.58;3.02;;;16.40;99.90;;;;;;1894565;75;21096;-81
2022/05/28 06:44:56;;;;;;;3.83;3.50;;;16.50;99.90;;;;;;1887434;75;21071;-80
2022/05/28 06:47:48;;;;;;;5.75;3.52;;;16.50;99.90;;;;;;1899508;75;21550;-81
2022/05/28 06:53:50;;;;;;;3.40;3.10;;;16.30;99.90;;;;;;1884536;75;21167;-80
2022/05/28 06:56:42;;;;;;;4.30;3.37;;;16.50;99.90;;;;;;1893978;75;21557;-80
2022/05/28 06:59:33;;;;;;;4.47;3.47;;;16.30;99.90;;;;;;1887493;75;21145;-81
2022/05/28 07:02:25;;;;;;;6.70;3.98;;;16.20;99.90;;;;;;1900577;73;21149;-81
2022/05/28 07:05:17;;;;;;;4.90;3.95;;;16.20;99.90;;;;;;1896662;75;21056;-81
2022/05/28 07:08:09;;;;;;;4.37;3.70;;;16.20;99.90;;;;;;1874701;75;21189;-81
2022/05/28 07:11:02;;;;;;;7.58;4.33;;;16.10;99.90;;;;;;1873638;74;21060;-80
2022/05/28 07:13:53;;;;;;;4.28;3.87;;;16.20;99.90;;;;;;1893926;75;21117;-81
2022/05/28 07:16:45;;;;;;;5.45;4.20;;;16.20;99.90;;;;;;1896658;75;21128;-81
2022/05/28 07:19:37;;;;;;;4.80;4.40;;;16.20;99.90;;;;;;1899004;75;21103;-81
2022/05/28 07:22:29;;;;;;;4.60;4.20;;;16.20;99.90;;;;;;1888624;75;21123;-81
2022/05/28 07:25:21;;;;;;;4.87;4.47;;;16.30;99.90;;;;;;1880472;75;21110;-81
2022/05/28 07:28:26;;;;;;;5.20;4.75;;;16.40;99.90;;;;;;1900140;75;21135;-82
2022/05/28 07:31:21;;;;;;;5.67;5.17;;;16.50;99.90;;;;;;1880710;74;21187;-82
2022/05/28 07:34:13;;;;;;;5.70;4.67;;;16.50;99.90;;;;;;1920840;74;21063;-83
2022/05/28 07:37:05;;;;;;;6.33;4.87;;;16.60;99.90;;;;;;1888589;75;21088;-82
2022/05/28 07:42:37;;;;;;;4.65;4.25;;;16.80;99.90;;;;;;1949762;72;22186;-81
2022/05/28 07:45:48;;;;;;;5.97;5.05;;;16.80;99.90;;;;;;1907147;75;21040;-82
2022/05/28 07:48:59;;;;;;;5.37;4.87;;;16.90;99.90;;;;;;1893241;75;21628;-82
2022/05/28 07:54:31;;;;;;;5.25;4.67;;;17.20;99.90;;;;;;1975825;72;22176;-81
2022/05/28 07:57:41;;;;;;;8.63;5.53;;;17.20;99.90;;;;;;1907221;75;21056;-81
2022/05/28 08:00:52;;;;;;;4.97;4.47;;;17.30;99.90;;;;;;1904848;75;21113;-82
2022/05/28 08:06:27;;;;;;;5.28;4.35;;;17.60;99.90;;;;;;1954516;72;22197;-82
2022/05/28 08:09:37;;;;;;;5.58;4.60;;;17.70;99.90;;;;;;1895124;75;21060;-82
2022/05/28 08:12:46;;;;;;;5.20;4.70;;;17.80;99.90;;;;;;1901015;75;21070;-82
2022/05/28 08:15:40;;;;;;;4.75;4.28;;;17.80;99.90;;;;;;1885780;75;21114;-83
2022/05/28 08:18:51;;;;;;;4.67;3.83;;;17.90;99.90;;;;;;1884265;75;21111;-79
2022/05/28 08:24:53;;;;;;;4.85;4.37;;;18.10;99.90;;;;;;1906263;75;21192;-79
2022/05/28 08:27:44;;;;;;;4.62;4.20;;;18.20;99.90;;;;;;1884126;75;21110;-79
2022/05/28 08:30:35;;;;;;;5.12;4.25;;;18.10;99.90;;;;;;1899873;75;21170;-80
2022/05/28 08:33:26;;;;;;;5.35;4.08;;;18.20;99.90;;;;;;1896604;75;21067;-79
2022/05/28 08:36:18;;;;;;;4.60;4.08;;;18.20;99.90;;;;;;1894924;75;21186;-79
2022/05/28 08:39:10;;;;;;;4.20;3.80;;;18.20;99.90;;;;;;1895377;75;21142;-79
2022/05/28 08:42:02;;;;;;;5.08;4.58;;;18.20;99.90;;;;;;1909093;75;21105;-78
2022/05/28 08:44:55;;;;;;;5.00;4.00;;;18.40;99.90;;;;;;1896705;75;21170;-78
2022/05/28 08:47:50;;;;;;;4.15;3.70;;;18.40;99.90;;;;;;1894930;75;21154;-78
2022/05/28 08:50:44;;;;;;;5.62;3.90;;;18.50;99.90;;;;;;1895126;75;21105;-81
2022/05/28 08:53:39;;;;;;;5.33;3.52;;;18.70;99.90;;;;;;1895778;75;21060;-79
2022/05/28 08:56:32;;;;;;;3.85;3.45;;;18.60;99.90;;;;;;1886587;73;21671;-78
2022/05/28 08:59:28;;;;;;;3.00;2.80;;;18.60;99.90;;;;;;1896727;75;21117;-78
2022/05/28 09:02:25;;;;;;;4.05;3.65;;;18.70;99.90;;;;;;1895028;75;21179;-79
2022/05/28 09:05:27;;;;;;;3.90;2.92;;;18.90;99.90;;;;;;1897292;74;21125;-78
2022/05/28 09:08:21;;;;;;;3.08;2.70;;;18.80;99.90;;;;;;1904580;74;21142;-78
2022/05/28 09:11:16;;;;;;;3.25;2.70;;;18.80;99.90;;;;;;1896685;74;21133;-79
2022/05/28 09:14:17;;;;;;;3.55;2.42;;;18.90;99.90;;;;;;1894189;75;21056;-79
2022/05/28 09:17:12;;;;;;;2.85;2.33;;;19.00;99.90;;;;;;1893553;76;21144;-79
2022/05/28 09:20:06;;;;;;;2.65;2.30;;;19.10;99.90;;;;;;1915306;74;21118;-79
2022/05/28 09:22:58;;;;;;;3.30;2.58;;;19.20;99.90;;;;;;1894744;74;21059;-79
2022/05/28 09:25:52;;;;;;;3.42;2.22;;;19.20;99.90;;;;;;1908041;74;21150;-79
2022/05/28 09:28:51;;;;;;;2.37;2.17;;;19.20;99.90;;;;;;1907423;74;21091;-79
2022/05/28 09:31:51;;;;;;;2.47;2.17;;;19.50;99.90;;;;;;1904384;74;21160;-79
2022/05/28 09:35:06;;;;;;;3.20;1.72;;;19.70;99.90;;;;;;1905127;74;21055;-79
2022/05/28 09:40:43;;;;;;;4.00;2.30;;;20.00;99.90;;;;;;1955453;72;22253;-78
2022/05/28 09:43:59;;;;;;;2.15;1.95;;;20.10;99.90;;;;;;1905669;75;21122;-78
2022/05/28 09:47:10;;;;;;;2.17;1.65;;;20.00;99.90;;;;;;1905695;75;21032;-79
2022/05/28 09:50:02;;;;;;;2.27;1.67;;;20.00;99.90;;;;;;1900707;75;21153;-79
2022/05/28 09:56:25;;;;;;;1.75;1.42;;;20.30;99.90;;;;;;1899434;75;21110;-79
2022/05/28 09:59:29;;;;;;;5.25;1.50;;;20.30;99.90;;;;;;1895029;75;21160;-79
2022/05/28 10:02:23;;;;;;;3.77;1.50;;;20.40;99.90;;;;;;1895164;75;21456;-78
2022/05/28 10:05:17;;;;;;;1.70;1.22;;;20.40;99.90;;;;;;1895795;75;21055;-78
2022/05/28 10:08:14;;;;;;;3.42;1.47;;;20.50;99.90;;;;;;1896004;75;21123;-78
2022/05/28 10:11:07;;;;;;;2.00;1.30;;;20.60;99.90;;;;;;1884581;75;21522;-78
2022/05/28 10:14:00;;;;;;;1.65;1.12;;;20.70;99.90;;;;;;1896429;75;21872;-78
2022/05/28 10:16:56;;;;;;;1.50;1.30;;;20.80;99.90;;;;;;1888035;75;21164;-78
2022/05/28 10:19:48;;;;;;;2.90;1.37;;;20.90;99.90;;;;;;1906611;75;21686;-78
2022/05/28 10:22:40;;;;;;;1.80;1.40;;;20.80;99.90;;;;;;1903667;75;21048;-78
2022/05/28 10:25:35;;;;;;;3.75;1.05;;;20.70;99.90;;;;;;1892746;75;21058;-78
2022/05/28 10:28:31;;;;;;;3.22;1.10;;;20.70;99.90;;;;;;1906838;75;21071;-78
2022/05/28 10:31:25;;;;;;;3.52;1.45;;;20.80;99.90;;;;;;1906573;75;21260;-78
2022/05/28 10:34:33;;;;;;;2.47;1.25;;;20.70;99.90;;;;;;1906437;75;21054;-78
2022/05/28 10:37:24;;;;;;;1.62;0.93;;;20.70;99.90;;;;;;1905507;75;21077;-78
2022/05/28 10:40:22;;;;;;;1.20;1.10;;;20.60;99.90;;;;;;1896643;75;21190;-78
2022/05/28 10:43:18;;;;;;;2.25;1.20;;;20.60;99.90;;;;;;1884548;75;21171;-78
2022/05/28 10:46:13;;;;;;;1.30;1.12;;;20.80;99.90;;;;;;1882683;75;21111;-78
2022/05/28 10:49:13;;;;;;;1.57;0.88;;;20.90;99.90;;;;;;1891397;75;21064;-78
2022/05/28 10:52:11;;;;;;;1.75;1.25;;;21.00;99.90;;;;;;1906051;75;21131;-78
2022/05/28 10:55:06;;;;;;;2.45;1.07;;;21.10;99.90;;;;;;1902541;75;21047;-78
2022/05/28 10:58:08;;;;;;;2.65;1.00;;;21.30;99.90;;;;;;1898077;75;21124;-78
2022/05/28 11:01:05;;;;;;;1.65;1.02;;;21.40;99.90;;;;;;1882677;75;21181;-78
2022/05/28 11:04:24;;;;;;;1.40;1.02;;;21.50;99.90;;;;;;1887425;75;21056;-78
2022/05/28 11:07:33;;;;;;;2.05;1.10;;;21.40;99.90;;;;;;1893678;75;21176;-78
2022/05/28 11:10:36;;;;;;;1.98;1.00;;;21.50;99.90;;;;;;1873382;74;21156;-78
2022/05/28 11:13:35;;;;;;;2.77;1.00;;;21.50;99.90;;;;;;1898565;75;21047;-78
2022/05/28 11:16:34;;;;;;;2.77;0.90;;;21.60;99.90;;;;;;1894802;75;21216;-78
2022/05/28 11:19:33;;;;;;;2.10;1.02;;;21.60;99.90;;;;;;1884911;75;21178;-78
2022/05/28 11:22:34;;;;;;;1.75;1.05;;;21.80;99.90;;;;;;1883735;76;21204;-79
2022/05/28 11:25:29;;;;;;;1.65;0.75;;;21.70;99.90;;;;;;1883427;74;21130;-78
2022/05/28 11:28:44;;;;;;;2.70;0.90;;;21.80;99.90;;;;;;1893794;75;21092;-79
2022/05/28 11:31:41;;;;;;;1.70;0.80;;;21.90;99.90;;;;;;1878975;74;21091;-79
2022/05/28 11:34:35;;;;;;;1.95;0.90;;;22.00;99.90;;;;;;1890380;75;21126;-79
2022/05/28 11:37:30;;;;;;;1.25;0.85;;;22.20;99.90;;;;;;1905661;75;21125;-79
2022/05/28 11:40:26;;;;;;;1.35;0.88;;;22.20;99.90;;;;;;1901424;75;21087;-78
2022/05/28 11:43:21;;;;;;;3.50;0.80;;;22.10;99.90;;;;;;1904472;75;21063;-78
2022/05/28 11:46:20;;;;;;;3.05;1.15;;;22.40;99.90;;;;;;1894872;75;21542;-82
2022/05/28 11:52:34;;;;;;;1.35;0.80;;;22.40;99.90;;;;;;1882492;75;21220;-80
2022/05/28 11:55:28;;;;;;;1.80;0.80;;;22.60;99.90;;;;;;1894709;73;21147;-80
2022/05/28 11:58:22;;;;;;;2.90;0.80;;;22.80;99.90;;;;;;1885652;75;21141;-80
2022/05/28 12:01:17;;;;;;;1.25;0.70;;;22.90;99.90;;;;;;1883670;76;21109;-80
2022/05/28 12:04:10;;;;;;;1.52;0.90;;;22.90;99.90;;;;;;1893864;75;21052;-81
2022/05/28 12:07:05;;;;;;;1.40;0.80;;;23.20;99.90;;;;;;1908624;75;21200;-80
2022/05/28 12:09:57;;;;;;;2.55;1.10;;;23.40;99.90;;;;;;1891569;75;21099;-80
2022/05/28 12:12:59;;;;;;;1.32;0.75;;;23.40;99.90;;;;;;1899164;75;21106;-80
2022/05/28 12:15:50;;;;;;;1.60;1.10;;;23.40;99.90;;;;;;1871880;77;21060;-80
2022/05/28 12:18:45;;;;;;;2.10;0.62;;;23.20;99.90;;;;;;1893815;75;21099;-80
2022/05/28 12:21:39;;;;;;;2.02;0.80;;;23.20;99.90;;;;;;1893367;75;21235;-81
2022/05/28 12:24:31;;;;;;;2.30;0.90;;;23.10;99.90;;;;;;1904853;75;21074;-80
2022/05/28 12:27:26;;;;;;;1.00;0.70;;;23.20;99.90;;;;;;1889252;74;21274;-80
2022/05/28 12:30:30;;;;;;;0.85;0.60;;;23.20;99.90;;;;;;1883866;76;21062;-80
2022/05/28 12:33:30;;;;;;;2.42;0.90;;;23.30;99.90;;;;;;1878137;74;21212;-80
2022/05/28 12:36:37;;;;;;;2.70;0.78;;;23.30;99.90;;;;;;1894445;74;21172;-80
2022/05/28 12:39:37;;;;;;;1.17;0.65;;;23.30;99.90;;;;;;1886634;75;21164;-80
2022/05/28 12:42:31;;;;;;;1.52;0.70;;;23.30;99.90;;;;;;1889290;75;21533;-80
2022/05/28 12:45:37;;;;;;;4.50;1.05;;;23.60;99.90;;;;;;1913360;74;21147;-79
2022/05/28 12:48:31;;;;;;;1.00;0.90;;;23.80;99.90;;;;;;1910333;74;21183;-80
2022/05/28 12:51:29;;;;;;;2.15;0.93;;;23.80;99.90;;;;;;1906232;74;21101;-80
2022/05/28 12:54:29;;;;;;;2.47;0.80;;;23.60;99.90;;;;;;1894681;74;21140;-80
2022/05/28 12:57:33;;;;;;;2.72;0.98;;;23.70;99.90;;;;;;1914600;73;21218;-80
2022/05/28 13:00:31;;;;;;;0.72;0.70;;;23.80;99.90;;;;;;1909956;74;21212;-80
2022/05/28 13:03:26;;;;;;;2.20;0.82;;;23.90;99.90;;;;;;1917811;73;21149;-80
2022/05/28 13:09:07;;;;;;;3.15;0.90;;;23.90;99.90;;;;;;1939203;72;28067;-80
2022/05/28 13:12:21;;;;;;;1.52;0.80;;;24.00;99.90;;;;;;1904262;74;21050;-81
2022/05/28 13:16:17;;;;;;;3.17;0.90;;;24.10;99.90;;;;;;1904888;74;21118;-80
2022/05/28 13:19:32;;;;;;;1.37;0.75;;;24.10;99.90;;;;;;1900439;75;21179;-80
2022/05/28 13:22:51;;;;;;;1.60;0.80;;;24.10;99.90;;;;;;1920065;74;21553;-80
2022/05/28 13:26:23;;;;;;;0.90;0.80;;;24.30;99.90;;;;;;1890385;73;21062;-80
2022/05/28 13:29:21;;;;;;;2.35;0.80;;;24.30;99.90;;;;;;1904421;74;21152;-80
2022/05/28 13:32:16;;;;;;;1.05;0.70;;;24.40;99.90;;;;;;1911467;74;21046;-81
2022/05/28 13:35:11;;;;;;;1.37;0.80;;;24.60;99.60;;;;;;1887256;74;21102;-81
2022/05/28 13:38:03;;;;;;;1.47;0.90;;;24.70;99.90;;;;;;1913051;75;21194;-81
2022/05/28 13:40:55;;;;;;;1.75;0.88;;;24.80;99.90;;;;;;1908058;73;21098;-81
2022/05/28 13:43:49;;;;;;;2.25;0.90;;;24.90;99.90;;;;;;1931854;74;21108;-81
2022/05/28 13:46:48;;;;;;;2.70;1.02;;;24.90;99.90;;;;;;1909124;75;21102;-80
2022/05/28 13:49:41;;;;;;;1.02;0.75;;;24.90;99.90;;;;;;1907241;75;21126;-81
2022/05/28 13:52:36;;;;;;;1.20;0.90;;;25.20;99.90;;;;;;1928743;74;21056;-81
2022/05/28 13:55:28;;;;;;;3.25;0.80;;;25.30;99.90;;;;;;1909522;74;21130;-80
2022/05/28 13:58:23;;;;;;;0.98;0.88;;;25.70;99.90;;;;;;1930298;74;21114;-80
2022/05/28 14:01:24;;;;;;;2.92;0.90;;;25.70;99.90;;;;;;1908793;74;21118;-81
2022/05/28 14:04:21;;;;;;;3.67;0.85;;;25.50;99.90;;;;;;1913833;74;21564;-81
2022/05/28 14:07:24;;;;;;;1.25;0.90;;;25.70;99.90;;;;;;1913347;73;21146;-80
2022/05/28 14:10:18;;;;;;;1.55;0.80;;;25.80;99.90;;;;;;1914565;73;21153;-81
2022/05/28 14:16:02;;;;;;;1.20;0.80;;;25.80;99.70;;;;;;1972724;72;22168;-81
2022/05/28 14:21:58;;;;;;;2.37;0.95;;;26.00;98.90;;;;;;1942260;72;22190;-80
2022/05/28 14:25:10;;;;;;;2.45;0.88;;;26.10;98.90;;;;;;1919548;74;21107;-80
2022/05/28 14:28:25;;;;;;;2.72;0.90;;;26.40;97.90;;;;;;1915605;75;21049;-81
2022/05/28 14:31:18;;;;;;;2.10;0.90;;;26.50;97.20;;;;;;1897758;74;21164;-80
2022/05/28 14:34:28;;;;;;;2.47;0.98;;;26.60;96.90;;;;;;1892719;74;21084;-80
2022/05/28 14:37:28;;;;;;;3.98;1.17;;;26.20;96.90;;;;;;1867735;76;21110;-80
2022/05/28 14:40:23;;;;;;;1.20;0.98;;;26.30;96.90;;;;;;1901593;74;21096;-80
2022/05/28 14:43:23;;;;;;;2.62;0.90;;;26.30;96.40;;;;;;1897096;75;21506;-80
2022/05/28 14:46:21;;;;;;;1.98;1.05;;;26.40;95.40;;;;;;1879687;76;21497;-80
2022/05/28 14:49:24;;;;;;;4.10;0.80;;;26.60;95.10;;;;;;1916043;75;21050;-80
2022/05/28 14:52:18;;;;;;;3.45;0.98;;;26.60;94.90;;;;;;1875593;76;21132;-81
2022/05/28 14:55:12;;;;;;;2.15;0.80;;;26.60;95.00;;;;;;1917333;74;21050;-80
2022/05/28 14:58:07;;;;;;;3.62;0.90;;;26.40;94.80;;;;;;1905298;75;21188;-80
2022/05/28 15:01:08;;;;;;;1.00;0.80;;;26.50;94.40;;;;;;1891406;74;21129;-80
2022/05/28 15:04:12;;;;;;;1.95;0.85;;;26.40;94.50;;;;;;1887525;74;21082;-80
2022/05/28 15:07:06;;;;;;;3.70;1.02;;;26.40;94.30;;;;;;1870659;76;21109;-80
2022/05/28 15:09:59;;;;;;;2.02;0.90;;;26.80;93.60;;;;;;1919417;73;21110;-81
2022/05/28 15:12:52;;;;;;;2.12;0.80;;;26.80;93.40;;;;;;1905291;74;21066;-80
2022/05/28 15:15:44;;;;;;;3.33;0.98;;;26.70;93.00;;;;;;1913767;75;21139;-80
2022/05/28 15:18:36;;;;;;;3.58;0.80;;;26.70;92.70;;;;;;1918098;74;21733;-81
2022/05/28 15:21:28;;;;;;;2.42;0.80;;;26.80;92.60;;;;;;1919291;74;21207;-80
2022/05/28 15:24:19;;;;;;;3.05;1.00;;;26.90;92.00;;;;;;1919756;74;21160;-81
2022/05/28 15:27:11;;;;;;;1.10;0.90;;;26.90;92.00;;;;;;1912582;75;21503;-81
2022/05/28 15:30:03;;;;;;;1.85;0.93;;;27.20;91.80;;;;;;1913429;75;21203;-81
2022/05/28 15:32:55;;;;;;;1.32;0.80;;;27.00;91.20;;;;;;1874411;76;21212;-81
2022/05/28 15:38:57;;;;;;;3.20;1.00;;;27.30;90.40;;;;;;1858200;76;21115;-81
2022/05/28 15:41:48;;;;;;;1.32;0.90;;;27.10;90.30;;;;;;1870615;76;21156;-80
2022/05/28 15:44:40;;;;;;;4.37;1.10;;;26.80;90.40;;;;;;1879964;76;21177;-80
2022/05/28 15:47:31;;;;;;;2.02;1.17;;;26.80;90.10;;;;;;1855830;77;21143;-81
2022/05/28 15:50:23;;;;;;;1.85;1.07;;;27.00;89.90;;;;;;1857867;76;21212;-81
2022/05/28 15:53:15;;;;;;;2.00;0.90;;;27.00;89.60;;;;;;1825882;78;21456;-80
2022/05/28 15:56:11;;;;;;;2.58;0.90;;;27.00;89.10;;;;;;1896286;74;21046;-81
2022/05/28 15:59:04;;;;;;;3.02;0.80;;;26.90;89.20;;;;;;1916673;75;21108;-81
2022/05/28 16:01:58;;;;;;;4.30;1.05;;;27.00;88.50;;;;;;1917238;74;21164;-81
2022/05/28 16:04:52;;;;;;;2.27;0.90;;;27.00;87.60;;;;;;1914268;74;21135;-80
2022/05/28 16:07:45;;;;;;;3.02;0.78;;;26.90;87.80;;;;;;1897226;75;21085;-81
2022/05/28 16:10:36;;;;;;;2.25;0.88;;;26.80;87.30;;;;;;1915558;74;21114;-81
2022/05/28 16:13:28;;;;;;;7.33;1.00;;;27.00;87.00;;;;;;1915222;74;21110;-81
2022/05/28 16:19:00;;;;;;;1.35;0.75;;;27.10;86.50;;;;;;1957528;72;22143;-81